Time,TemperatureF,DewpointF,PressureIn,WindDirection,WindDirectionDegrees,WindSpeedMPH,WindSpeedGustMPH,Humidity,HourlyPrecipIn,Conditions,Clouds,dailyrainin,SoftwareType,DateUTC
2018-04-21 00:04:00,42.3,25.9,30.08,NW,322,1.0,2.0,52,0.00,,,0.00,VWS V14.01,2018-04-21 06:04:00,
2018-04-21 00:09:00,41.3,25.5,30.09,NW,322,2.0,2.0,53,0.00,,,0.00,VWS V14.01,2018-04-21 06:09:00,
2018-04-21 00:14:00,41.0,25.6,30.09,NW,322,2.0,3.0,54,0.00,,,0.00,VWS V14.01,2018-04-21 06:14:00,
2018-04-21 00:19:00,40.8,25.9,30.09,NW,321,3.0,3.0,55,0.00,,,0.00,VWS V14.01,2018-04-21 06:19:00,
2018-04-21 00:24:00,40.6,25.7,30.09,NW,319,1.0,3.0,55,0.00,,,0.00,VWS V14.01,2018-04-21 06:24:00,
2018-04-21 00:29:00,40.5,26.0,30.09,NNW,328,2.0,3.0,56,0.00,,,0.00,VWS V14.01,2018-04-21 06:29:00,
2018-04-21 00:34:00,40.5,26.0,30.09,NW,315,2.0,2.0,56,0.00,,,0.00,VWS V14.01,2018-04-21 06:34:00,
2018-04-21 00:39:00,40.5,25.6,30.09,NNW,332,1.0,2.0,55,0.00,,,0.00,VWS V14.01,2018-04-21 06:39:00,
2018-04-21 00:44:00,39.6,25.6,30.09,NNW,327,2.0,2.0,57,0.00,,,0.00,VWS V14.01,2018-04-21 06:44:00,
2018-04-21 00:49:00,39.3,25.8,30.09,NNW,330,2.0,3.0,58,0.00,,,0.00,VWS V14.01,2018-04-21 06:49:00,
2018-04-21 00:54:00,39.3,26.2,30.09,NW,308,2.0,4.0,59,0.00,,,0.00,VWS V14.01,2018-04-21 06:54:00,
2018-04-21 00:59:00,40.3,26.7,30.09,NW,321,4.0,6.0,58,0.00,,,0.00,VWS V14.01,2018-04-21 06:59:00,
2018-04-21 01:04:00,40.7,26.2,30.09,NW,308,4.0,4.0,56,0.00,,,0.00,VWS V14.01,2018-04-21 07:04:00,
2018-04-21 01:09:00,40.7,26.7,30.09,NNW,341,2.0,4.0,57,0.00,,,0.00,VWS V14.01,2018-04-21 07:09:00,
2018-04-21 01:14:00,40.4,26.8,30.10,NNW,340,2.0,4.0,58,0.00,,,0.00,VWS V14.01,2018-04-21 07:14:00,
2018-04-21 01:19:00,40.1,26.5,30.09,NNW,330,2.0,4.0,58,0.00,,,0.00,VWS V14.01,2018-04-21 07:19:00,
2018-04-21 01:24:00,39.4,26.3,30.09,NNW,327,1.0,4.0,59,0.00,,,0.00,VWS V14.01,2018-04-21 07:24:00,
2018-04-21 01:29:00,38.8,26.1,30.09,NNW,339,0.0,4.0,60,0.00,,,0.00,VWS V14.01,2018-04-21 07:29:00,
2018-04-21 01:34:00,37.9,26.1,30.09,NNW,333,1.0,2.0,62,0.00,,,0.00,VWS V14.01,2018-04-21 07:34:00,
2018-04-21 01:39:00,38.3,26.0,30.10,NW,325,1.0,2.0,61,0.00,,,0.00,VWS V14.01,2018-04-21 07:39:00,
2018-04-21 01:44:00,38.4,26.1,30.10,NW,324,0.0,2.0,61,0.00,,,0.00,VWS V14.01,2018-04-21 07:44:00,
2018-04-21 01:49:00,38.1,25.5,30.10,NNW,330,0.0,2.0,60,0.00,,,0.00,VWS V14.01,2018-04-21 07:49:00,
2018-04-21 01:54:00,37.9,25.7,30.10,NNW,330,0.0,2.0,61,0.00,,,0.00,VWS V14.01,2018-04-21 07:54:00,
2018-04-21 01:59:00,37.5,25.7,30.10,NNW,330,0.0,2.0,62,0.00,,,0.00,VWS V14.01,2018-04-21 07:59:00,
2018-04-21 02:04:00,37.7,25.9,30.10,NW,310,2.0,2.0,62,0.00,,,0.00,VWS V14.01,2018-04-21 08:04:00,
2018-04-21 02:09:00,38.3,25.6,30.10,NW,310,0.0,2.0,60,0.00,,,0.00,VWS V14.01,2018-04-21 08:09:00,
2018-04-21 02:14:00,37.9,26.8,30.10,SSW,212,0.0,2.0,64,0.00,,,0.00,VWS V14.01,2018-04-21 08:14:00,
2018-04-21 02:19:00,37.4,26.4,30.10,SSW,212,0.0,2.0,64,0.00,,,0.00,VWS V14.01,2018-04-21 08:19:00,
2018-04-21 02:24:00,36.9,25.9,30.10,WSW,248,0.0,2.0,64,0.00,,,0.00,VWS V14.01,2018-04-21 08:24:00,
2018-04-21 02:29:00,36.4,25.4,30.10,NW,314,0.0,2.0,64,0.00,,,0.00,VWS V14.01,2018-04-21 08:29:00,
2018-04-21 02:34:00,35.9,25.3,30.10,NNW,328,0.0,1.0,65,0.00,,,0.00,VWS V14.01,2018-04-21 08:34:00,
2018-04-21 02:39:00,36.3,25.7,30.09,NNW,334,0.0,1.0,65,0.00,,,0.00,VWS V14.01,2018-04-21 08:39:00,
2018-04-21 02:44:00,36.5,25.5,30.09,NNW,332,0.0,1.0,64,0.00,,,0.00,VWS V14.01,2018-04-21 08:44:00,
2018-04-21 02:49:00,36.9,25.9,30.09,NNW,334,0.0,1.0,64,0.00,,,0.00,VWS V14.01,2018-04-21 08:49:00,
2018-04-21 02:54:00,36.4,26.1,30.09,SSW,203,0.0,1.0,66,0.00,,,0.00,VWS V14.01,2018-04-21 08:54:00,
2018-04-21 02:59:00,36.0,26.5,30.09,SSW,203,0.0,1.0,68,0.00,,,0.00,VWS V14.01,2018-04-21 08:59:00,
2018-04-21 03:04:00,35.4,25.9,30.09,SSW,203,0.0,0.0,68,0.00,,,0.00,VWS V14.01,2018-04-21 09:04:00,
2018-04-21 03:09:00,34.8,25.3,30.09,WNW,286,0.0,1.0,68,0.00,,,0.00,VWS V14.01,2018-04-21 09:09:00,
2018-04-21 03:14:00,34.2,25.1,30.10,North,359,0.0,1.0,69,0.00,,,0.00,VWS V14.01,2018-04-21 09:14:00,
2018-04-21 03:19:00,33.8,25.4,30.10,North,8,0.0,1.0,71,0.00,,,0.00,VWS V14.01,2018-04-21 09:19:00,
2018-04-21 03:24:00,33.9,25.2,30.10,North,8,0.0,1.0,70,0.00,,,0.00,VWS V14.01,2018-04-21 09:24:00,
2018-04-21 03:29:00,34.2,25.5,30.09,North,9,0.0,1.0,70,0.00,,,0.00,VWS V14.01,2018-04-21 09:29:00,
2018-04-21 03:34:00,34.5,25.4,30.09,North,8,0.0,0.0,69,0.00,,,0.00,VWS V14.01,2018-04-21 09:34:00,
2018-04-21 03:39:00,34.4,25.3,30.10,SSW,213,0.0,1.0,69,0.00,,,0.00,VWS V14.01,2018-04-21 09:39:00,
2018-04-21 03:44:00,33.6,26.2,30.09,SSW,203,0.0,2.0,74,0.00,,,0.00,VWS V14.01,2018-04-21 09:44:00,
2018-04-21 03:49:00,33.1,26.7,30.09,South,188,0.0,2.0,77,0.00,,,0.00,VWS V14.01,2018-04-21 09:49:00,
2018-04-21 03:54:00,32.6,26.8,30.09,South,190,0.0,2.0,79,0.00,,,0.00,VWS V14.01,2018-04-21 09:54:00,
2018-04-21 03:59:00,32.5,27.3,30.09,ESE,120,0.0,2.0,81,0.00,,,0.00,VWS V14.01,2018-04-21 09:59:00,
2018-04-21 04:04:00,32.1,26.9,30.09,East,86,0.0,0.0,81,0.00,,,0.00,VWS V14.01,2018-04-21 10:04:00,
2018-04-21 04:09:00,32.0,26.8,30.09,East,86,0.0,0.0,81,0.00,,,0.00,VWS V14.01,2018-04-21 10:09:00,
2018-04-21 04:14:00,31.9,27.0,30.10,NNW,345,0.0,0.0,82,0.00,,,0.00,VWS V14.01,2018-04-21 10:14:00,
2018-04-21 04:19:00,32.1,27.2,30.10,NNW,330,0.0,1.0,82,0.00,,,0.00,VWS V14.01,2018-04-21 10:19:00,
2018-04-21 04:29:00,31.6,26.5,30.10,East,79,0.0,2.0,81,0.00,,,0.00,VWS V14.01,2018-04-21 10:29:00,
2018-04-21 04:34:00,31.5,26.4,30.09,ENE,77,0.0,0.0,81,0.00,,,0.00,VWS V14.01,2018-04-21 10:34:00,
2018-04-21 04:39:00,31.7,26.8,30.09,NNE,15,0.0,0.0,82,0.00,,,0.00,VWS V14.01,2018-04-21 10:39:00,
2018-04-21 04:44:00,32.1,26.9,30.09,NNE,15,0.0,0.0,81,0.00,,,0.00,VWS V14.01,2018-04-21 10:44:00,
2018-04-21 04:49:00,32.2,27.0,30.09,NNE,15,0.0,0.0,81,0.00,,,0.00,VWS V14.01,2018-04-21 10:49:00,
2018-04-21 04:54:00,31.8,26.4,30.09,ESE,102,0.0,0.0,80,0.00,,,0.00,VWS V14.01,2018-04-21 10:54:00,
2018-04-21 04:59:00,31.4,26.5,30.09,ESE,102,0.0,0.0,82,0.00,,,0.00,VWS V14.01,2018-04-21 10:59:00,
2018-04-21 05:04:00,31.2,26.4,30.09,ESE,102,0.0,0.0,82,0.00,,,0.00,VWS V14.01,2018-04-21 11:04:00,
2018-04-21 05:09:00,30.6,25.8,30.10,East,101,0.0,0.0,82,0.00,,,0.00,VWS V14.01,2018-04-21 11:09:00,
2018-04-21 05:14:00,30.5,26.0,30.10,ESE,102,0.0,0.0,83,0.00,,,0.00,VWS V14.01,2018-04-21 11:14:00,
2018-04-21 05:18:00,30.7,26.2,30.10,SSE,148,0.0,0.0,83,0.00,,,0.00,VWS V14.01,2018-04-21 11:18:00,
2018-04-21 05:23:00,30.4,26.1,30.10,SSE,148,0.0,0.0,84,0.00,,,0.00,VWS V14.01,2018-04-21 11:23:00,
2018-04-21 05:28:00,30.2,26.2,30.10,SSE,148,0.0,0.0,85,0.00,,,0.00,VWS V14.01,2018-04-21 11:28:00,
2018-04-21 05:33:00,30.0,26.3,30.10,SSE,148,0.0,0.0,86,0.00,,,0.00,VWS V14.01,2018-04-21 11:33:00,
2018-04-21 05:38:00,30.1,26.7,30.11,South,169,0.0,0.0,87,0.00,,,0.00,VWS V14.01,2018-04-21 11:38:00,
2018-04-21 05:43:00,30.1,27.0,30.10,South,169,0.0,0.0,88,0.00,,,0.00,VWS V14.01,2018-04-21 11:43:00,
2018-04-21 05:48:00,30.1,27.0,30.10,South,169,0.0,0.0,88,0.00,,,0.00,VWS V14.01,2018-04-21 11:48:00,
2018-04-21 05:53:00,30.0,26.9,30.10,South,169,0.0,0.0,88,0.00,,,0.00,VWS V14.01,2018-04-21 11:53:00,
2018-04-21 05:58:00,29.6,26.5,30.10,South,169,0.0,0.0,88,0.00,,,0.00,VWS V14.01,2018-04-21 11:58:00,
2018-04-21 06:03:00,29.5,26.4,30.10,SSE,166,0.0,0.0,88,0.00,,,0.00,VWS V14.01,2018-04-21 12:03:00,
2018-04-21 06:08:00,29.4,26.6,30.10,SSE,166,0.0,0.0,89,0.00,,,0.00,VWS V14.01,2018-04-21 12:08:00,
2018-04-21 06:13:00,29.3,26.5,30.10,SSE,166,0.0,0.0,89,0.00,,,0.00,VWS V14.01,2018-04-21 12:13:00,
2018-04-21 06:18:00,29.1,26.3,30.10,SSE,166,0.0,0.0,89,0.00,,,0.00,VWS V14.01,2018-04-21 12:18:00,
2018-04-21 06:23:00,29.0,26.2,30.10,SSE,158,0.0,0.0,89,0.00,,,0.00,VWS V14.01,2018-04-21 12:23:00,
2018-04-21 06:28:00,29.1,26.5,30.10,West,273,0.0,0.0,90,0.00,,,0.00,VWS V14.01,2018-04-21 12:28:00,
2018-04-21 06:33:00,29.3,26.7,30.10,West,271,0.0,0.0,90,0.00,,,0.00,VWS V14.01,2018-04-21 12:33:00,
2018-04-21 06:38:00,29.7,26.9,30.10,West,273,0.0,0.0,89,0.00,,,0.00,VWS V14.01,2018-04-21 12:38:00,
2018-04-21 06:43:00,29.7,26.9,30.10,West,273,0.0,0.0,89,0.00,,,0.00,VWS V14.01,2018-04-21 12:43:00,
2018-04-21 06:48:00,29.1,25.7,30.10,NE,53,0.0,0.0,87,0.00,,,0.00,VWS V14.01,2018-04-21 12:48:00,
2018-04-21 06:53:00,29.3,26.5,30.10,NE,52,0.0,0.0,89,0.00,,,0.00,VWS V14.01,2018-04-21 12:53:00,
2018-04-21 06:58:00,29.6,26.8,30.10,NE,53,0.0,0.0,89,0.00,,,0.00,VWS V14.01,2018-04-21 12:58:00,
2018-04-21 07:03:00,30.2,27.1,30.10,ESE,111,0.0,0.0,88,0.00,,,0.00,VWS V14.01,2018-04-21 13:03:00,
2018-04-21 07:08:00,31.2,27.8,30.10,WSW,248,0.0,0.0,87,0.00,,,0.00,VWS V14.01,2018-04-21 13:08:00,
2018-04-21 07:13:00,32.4,28.7,30.10,SSW,193,0.0,1.0,86,0.00,,,0.00,VWS V14.01,2018-04-21 13:13:00,
2018-04-21 07:18:00,33.6,29.3,30.10,South,172,1.0,2.0,84,0.00,,,0.00,VWS V14.01,2018-04-21 13:18:00,
2018-04-21 07:23:00,34.4,29.5,30.10,SSE,158,0.0,2.0,82,0.00,,,0.00,VWS V14.01,2018-04-21 13:23:00,
2018-04-21 07:28:00,35.2,29.7,30.10,SSE,166,0.0,2.0,80,0.00,,,0.00,VWS V14.01,2018-04-21 13:28:00,
2018-04-21 07:33:00,35.7,29.8,30.10,SE,136,0.0,0.0,79,0.00,,,0.00,VWS V14.01,2018-04-21 13:33:00,
2018-04-21 07:38:00,36.1,29.6,30.10,SE,131,0.0,0.0,77,0.00,,,0.00,VWS V14.01,2018-04-21 13:38:00,
2018-04-21 07:43:00,36.7,29.9,30.11,SE,131,0.0,0.0,76,0.00,,,0.00,VWS V14.01,2018-04-21 13:43:00,
2018-04-21 07:48:00,37.7,30.5,30.11,ESE,118,0.0,1.0,75,0.00,,,0.00,VWS V14.01,2018-04-21 13:48:00,
2018-04-21 07:53:00,38.3,30.8,30.11,SSE,163,0.0,1.0,74,0.00,,,0.00,VWS V14.01,2018-04-21 13:53:00,
2018-04-21 07:58:00,39.3,31.0,30.11,SSE,163,0.0,1.0,72,0.00,,,0.00,VWS V14.01,2018-04-21 13:58:00,
2018-04-21 08:03:00,39.5,31.2,30.12,ENE,76,0.0,0.0,72,0.00,,,0.00,VWS V14.01,2018-04-21 14:03:00,
2018-04-21 08:08:00,39.2,30.6,30.12,East,86,0.0,1.0,71,0.00,,,0.00,VWS V14.01,2018-04-21 14:08:00,
2018-04-21 08:13:00,39.6,30.3,30.11,ESE,107,0.0,1.0,69,0.00,,,0.00,VWS V14.01,2018-04-21 14:13:00,
2018-04-21 08:18:00,40.6,31.6,30.11,SE,131,0.0,1.0,70,0.00,,,0.00,VWS V14.01,2018-04-21 14:18:00,
2018-04-21 08:23:00,41.5,31.0,30.11,SSE,163,0.0,1.0,66,0.00,,,0.00,VWS V14.01,2018-04-21 14:23:00,
2018-04-21 08:28:00,41.5,31.0,30.11,SE,136,2.0,2.0,66,0.00,,,0.00,VWS V14.01,2018-04-21 14:28:00,
2018-04-21 08:33:00,40.3,30.6,30.11,South,169,2.0,2.0,68,0.00,,,0.00,VWS V14.01,2018-04-21 14:33:00,
2018-04-21 08:38:00,39.6,30.3,30.10,South,170,2.0,4.0,69,0.00,,,0.00,VWS V14.01,2018-04-21 14:38:00,
2018-04-21 08:43:00,39.2,30.6,30.11,SE,142,1.0,4.0,71,0.00,,,0.00,VWS V14.01,2018-04-21 14:43:00,